HiltRWIS Atmospheric Data: 04/18/2019 Summary  Detailed Graphs  Station List

  Temperature     Wind Precipitation Visibility
Timestamp Air Wet
Bulb
Dew-
point
24-hr
Max
24-hr
Min
Relative
Humidity
Atmospheric
Pressure
Avg
Speed
Avg
Dir
Spot
Speed
Spot
Dir
Max
Speed
Max
Dir
  Rate Situation Start End 1 hr 3 hr 6 hr 12 hr 24 hr   Situation
Date Time °F °F °F °F °F % in Hg mph ° mph ° mph ° Y/N in/hr text Date Time Date Time in in in in in mi text
04/18/2019 12:11 AM 48.02 43.70 38.84 69.98 37.76 71.0 Not Reported 2.24 E 1.34 SE 2.24 E No 0.000 No Precipitation 04/15/2019 09:01 PM 04/15/2019 09:06 PM 0.000 0.000 0.000 0.000 0.000 Not Reported Not Reported
04/18/2019 12:26 AM 48.38 43.88 38.84 69.98 37.76 69.0 Not Reported 1.34 SE 1.12 SE 2.24 E No 0.000 No Precipitation 04/15/2019 09:01 PM 04/15/2019 09:06 PM 0.000 0.000 0.000 0.000 0.000 Not Reported Not Reported
04/18/2019 12:41 AM 47.48 43.34 38.84 69.98 37.76 71.0 Not Reported 2.68 E 2.46 NE 2.91 E No 0.000 No Precipitation 04/15/2019 09:01 PM 04/15/2019 09:06 PM 0.000 0.000 0.000 0.000 0.000 Not Reported Not Reported
04/18/2019 12:56 AM 47.48 43.34 38.66 69.98 37.76 71.0 Not Reported 0.89 E 0.22 E 1.57 E No 0.000 No Precipitation 04/15/2019 09:01 PM 04/15/2019 09:06 PM 0.000 0.000 0.000 0.000 0.000 Not Reported Not Reported
04/18/2019 01:11 AM 46.04 42.44 38.48 69.98 37.76 74.0 Not Reported 0.67 NE 0.00 NE 2.68 E No 0.000 No Precipitation 04/15/2019 09:01 PM 04/15/2019 09:06 PM 0.000 0.000 0.000 0.000 0.000 Not Reported Not Reported
04/18/2019 01:27 AM 46.40 42.62 38.48 69.98 37.76 73.0 Not Reported 0.67 E 1.12 SE 2.01 E No 0.000 No Precipitation 04/15/2019 09:01 PM 04/15/2019 09:06 PM 0.000 0.000 0.000 0.000 0.000 Not Reported Not Reported
04/18/2019 01:42 AM 45.86 42.44 38.84 69.98 37.76 75.0 Not Reported 1.57 E 2.24 E 1.79 S No 0.000 No Precipitation 04/15/2019 09:01 PM 04/15/2019 09:06 PM 0.000 0.000 0.000 0.000 0.000 Not Reported Not Reported
04/18/2019 01:58 AM 46.76 42.98 38.66 69.98 37.76 72.0 Not Reported 1.12 SE 0.45 S 2.46 E No 0.000 No Precipitation 04/15/2019 09:01 PM 04/15/2019 09:06 PM 0.000 0.000 0.000 0.000 0.000 Not Reported Not Reported
04/18/2019 02:11 AM 47.12 42.98 38.48 69.98 37.76 71.0 Not Reported 1.57 SE 1.57 E 1.34 SE No 0.000 No Precipitation 04/15/2019 09:01 PM 04/15/2019 09:06 PM 0.000 0.000 0.000 0.000 0.000 Not Reported Not Reported
04/18/2019 02:26 AM 46.04 42.44 38.48 69.98 37.76 74.0 Not Reported 0.89 SE 0.89 SE 2.01 E No 0.000 No Precipitation 04/15/2019 09:01 PM 04/15/2019 09:06 PM 0.000 0.000 0.000 0.000 0.000 Not Reported Not Reported
04/18/2019 02:43 AM 45.68 42.26 38.30 69.98 37.76 75.0 Not Reported 1.12 SE 0.00 S 2.01 E No 0.000 No Precipitation 04/15/2019 09:01 PM 04/15/2019 09:06 PM 0.000 0.000 0.000 0.000 0.000 Not Reported Not Reported
04/18/2019 02:56 AM 43.88 41.18 38.12 69.98 37.76 79.0 Not Reported 1.12 NE 0.67 NE 1.34 NE No 0.000 No Precipitation 04/15/2019 09:01 PM 04/15/2019 09:06 PM 0.000 0.000 0.000 0.000 0.000 Not Reported Not Reported
04/18/2019 03:11 AM 45.68 42.44 38.84 69.98 37.76 76.0 Not Reported 2.01 NE 3.13 E 1.34 E No 0.000 No Precipitation 04/15/2019 09:01 PM 04/15/2019 09:06 PM 0.000 0.000 0.000 0.000 0.000 Not Reported Not Reported
04/18/2019 03:26 AM 44.60 41.54 38.12 69.98 37.76 77.0 Not Reported 0.22 E 0.00 NE 2.24 E No 0.000 No Precipitation 04/15/2019 09:01 PM 04/15/2019 09:06 PM 0.000 0.000 0.000 0.000 0.000 Not Reported Not Reported
04/18/2019 03:41 AM 44.06 41.36 38.30 69.98 37.76 80.0 Not Reported 0.22 E 1.12 E 1.34 SE No 0.000 No Precipitation 04/15/2019 09:01 PM 04/15/2019 09:06 PM 0.000 0.000 0.000 0.000 0.000 Not Reported Not Reported
04/18/2019 03:58 AM 43.70 41.36 38.66 69.98 37.76 81.0 Not Reported 1.57 NE 1.79 NE 1.34 E No 0.000 No Precipitation 04/15/2019 09:01 PM 04/15/2019 09:06 PM 0.000 0.000 0.000 0.000 0.000 Not Reported Not Reported
04/18/2019 04:11 AM 42.62 40.64 38.12 69.98 37.76 83.0 Not Reported 0.67 W 1.12 NE 1.79 NE No 0.000 No Precipitation 04/15/2019 09:01 PM 04/15/2019 09:06 PM 0.000 0.000 0.000 0.000 0.000 Not Reported Not Reported
04/18/2019 04:28 AM 42.98 40.64 37.76 69.98 37.76 81.0 Not Reported 1.79 E 0.00 W 2.01 E No 0.000 No Precipitation 04/15/2019 09:01 PM 04/15/2019 09:06 PM 0.000 0.000 0.000 0.000 0.000 Not Reported Not Reported
04/18/2019 04:41 AM 44.06 41.36 38.30 69.98 37.76 80.0 Not Reported 2.46 E 0.67 SE 2.46 E No 0.000 No Precipitation 04/15/2019 09:01 PM 04/15/2019 09:06 PM 0.000 0.000 0.000 0.000 0.000 Not Reported Not Reported
04/18/2019 04:58 AM 43.34 41.00 38.12 69.98 37.76 81.0 Not Reported 0.00 N 0.00 SW 1.57 E No 0.000 No Precipitation 04/15/2019 09:01 PM 04/15/2019 09:06 PM 0.000 0.000 0.000 0.000 0.000 Not Reported Not Reported
04/18/2019 05:12 AM 42.08 40.10 37.58 69.98 37.76 83.0 Not Reported 0.00 S 0.00 E 0.89 E No 0.000 No Precipitation 04/15/2019 09:01 PM 04/15/2019 09:06 PM 0.000 0.000 0.000 0.000 0.000 Not Reported Not Reported
04/18/2019 05:26 AM 43.70 41.18 38.30 69.98 37.76 80.0 Not Reported 2.24 NE 2.91 NE 3.13 E No 0.000 No Precipitation 04/15/2019 09:01 PM 04/15/2019 09:06 PM 0.000 0.000 0.000 0.000 0.000 Not Reported Not Reported
04/18/2019 05:41 AM 42.26 40.28 37.76 69.98 37.76 84.0 Not Reported 0.89 NE 2.24 E 2.91 E No 0.000 No Precipitation 04/15/2019 09:01 PM 04/15/2019 09:06 PM 0.000 0.000 0.000 0.000 0.000 Not Reported Not Reported
04/18/2019 05:56 AM 41.90 39.92 37.58 69.98 37.76 84.0 Not Reported 0.00 N 0.00 NW 2.24 E No 0.000 No Precipitation 04/15/2019 09:01 PM 04/15/2019 09:06 PM 0.000 0.000 0.000 0.000 0.000 Not Reported Not Reported
04/18/2019 06:13 AM 42.08 40.10 37.58 69.98 37.76 83.0 Not Reported 1.57 E 0.89 E 0.89 E No 0.000 No Precipitation 04/15/2019 09:01 PM 04/15/2019 09:06 PM 0.000 0.000 0.000 0.000 0.000 Not Reported Not Reported
04/18/2019 06:27 AM 42.26 40.10 37.58 69.98 37.76 83.0 Not Reported 0.45 SE 0.45 SE 1.12 S No 0.000 No Precipitation 04/15/2019 09:01 PM 04/15/2019 09:06 PM 0.000 0.000 0.000 0.000 0.000 Not Reported Not Reported
04/18/2019 06:41 AM 41.90 40.10 37.76 69.98 37.76 85.0 Not Reported 0.22 S 0.00 S 2.24 SW No 0.000 No Precipitation 04/15/2019 09:01 PM 04/15/2019 09:06 PM 0.000 0.000 0.000 0.000 0.000 Not Reported Not Reported
04/18/2019 06:56 AM 42.08 40.10 37.94 69.98 37.76 84.0 Not Reported 1.57 E 1.57 E 2.01 SE No 0.000 No Precipitation 04/15/2019 09:01 PM 04/15/2019 09:06 PM 0.000 0.000 0.000 0.000 0.000 Not Reported Not Reported
04/18/2019 07:11 AM 41.90 40.10 37.76 69.98 37.76 84.0 Not Reported 1.57 NE 0.67 NE 2.24 E No 0.000 No Precipitation 04/15/2019 09:01 PM 04/15/2019 09:06 PM 0.000 0.000 0.000 0.000 0.000 Not Reported Not Reported
04/18/2019 07:26 AM 41.54 39.74 37.76 69.98 37.76 85.0 Not Reported 0.22 N 0.00 SE 1.34 NE No 0.000 No Precipitation 04/15/2019 09:01 PM 04/15/2019 09:06 PM 0.000 0.000 0.000 0.000 0.000 Not Reported Not Reported
04/18/2019 07:41 AM 40.64 39.20 37.40 69.98 37.76 88.0 Not Reported 0.00 N 1.12 NE 0.89 S No 0.000 No Precipitation 04/15/2019 09:01 PM 04/15/2019 09:06 PM 0.000 0.000 0.000 0.000 0.000 Not Reported Not Reported
04/18/2019 07:58 AM 42.62 40.46 38.12 69.98 37.76 83.0 Not Reported 2.91 E 3.36 E 3.13 E No 0.000 No Precipitation 04/15/2019 09:01 PM 04/15/2019 09:06 PM 0.000 0.000 0.000 0.000 0.000 Not Reported Not Reported
04/18/2019 08:11 AM 42.26 40.46 38.12 69.98 37.76 84.0 Not Reported 0.22 NE 0.00 NE 3.36 E No 0.000 No Precipitation 04/15/2019 09:01 PM 04/15/2019 09:06 PM 0.000 0.000 0.000 0.000 0.000 Not Reported Not Reported
04/18/2019 08:26 AM 41.00 39.38 37.22 69.98 37.76 86.0 Not Reported 0.45 E 0.22 NE 1.57 NW No 0.000 No Precipitation 04/15/2019 09:01 PM 04/15/2019 09:06 PM 0.000 0.000 0.000 0.000 0.000 Not Reported Not Reported
04/18/2019 08:41 AM 42.08 40.64 38.84 69.98 37.76 87.0 Not Reported 1.34 E 0.67 E 2.01 E No 0.000 No Precipitation 04/15/2019 09:01 PM 04/15/2019 09:06 PM 0.000 0.000 0.000 0.000 0.000 Not Reported Not Reported
04/18/2019 08:56 AM 44.06 41.90 39.56 69.98 37.76 84.0 Not Reported 0.22 S 0.00 SE 2.24 E No 0.000 No Precipitation 04/15/2019 09:01 PM 04/15/2019 09:06 PM 0.000 0.000 0.000 0.000 0.000 Not Reported Not Reported
04/18/2019 09:12 AM 44.78 42.44 39.92 69.98 37.76 83.0 Not Reported 0.67 SE 0.00 SE 0.89 E No 0.000 No Precipitation 04/15/2019 09:01 PM 04/15/2019 09:06 PM 0.000 0.000 0.000 0.000 0.000 Not Reported Not Reported
04/18/2019 09:26 AM 48.92 45.86 42.62 69.98 37.76 78.0 Not Reported 0.00 S 0.00 S 0.67 SE No 0.000 No Precipitation 04/15/2019 09:01 PM 04/15/2019 09:06 PM 0.000 0.000 0.000 0.000 0.000 Not Reported Not Reported
04/18/2019 09:41 AM 53.96 48.92 44.42 69.98 37.76 69.0 Not Reported 1.12 S 1.12 S 0.89 SE No 0.000 No Precipitation 04/15/2019 09:01 PM 04/15/2019 09:06 PM 0.000 0.000 0.000 0.000 0.000 Not Reported Not Reported
04/18/2019 09:56 AM 53.24 47.66 42.44 69.98 37.76 66.0 Not Reported 5.59 S 6.49 S 6.71 S No 0.000 No Precipitation 04/15/2019 09:01 PM 04/15/2019 09:06 PM 0.000 0.000 0.000 0.000 0.000 Not Reported Not Reported
04/18/2019 10:11 AM 54.50 48.38 42.62 69.98 37.76 64.0 Not Reported 4.92 S 4.47 SW 6.71 S No 0.000 No Precipitation 04/15/2019 09:01 PM 04/15/2019 09:06 PM 0.000 0.000 0.000 0.000 0.000 Not Reported Not Reported
04/18/2019 10:27 AM 56.12 49.46 43.34 69.98 37.76 61.0 Not Reported 3.36 S 3.36 S 5.37 S No 0.000 No Precipitation 04/15/2019 09:01 PM 04/15/2019 09:06 PM 0.000 0.000 0.000 0.000 0.000 Not Reported Not Reported
04/18/2019 10:41 AM 58.10 50.18 42.98 69.98 37.76 56.0 Not Reported 4.47 S 4.25 S 5.37 S No 0.000 No Precipitation 04/15/2019 09:01 PM 04/15/2019 09:06 PM 0.000 0.000 0.000 0.000 0.000 Not Reported Not Reported
04/18/2019 10:56 AM 58.46 50.54 43.16 69.98 37.76 56.0 Not Reported 3.80 S 2.91 S 5.59 S No 0.000 No Precipitation 04/15/2019 09:01 PM 04/15/2019 09:06 PM 0.000 0.000 0.000 0.000 0.000 Not Reported Not Reported
04/18/2019 11:12 AM 59.90 50.54 41.90 69.98 37.76 52.0 Not Reported 4.25 S 2.91 S 4.92 S No 0.000 No Precipitation 04/15/2019 09:01 PM 04/15/2019 09:06 PM 0.000 0.000 0.000 0.000 0.000 Not Reported Not Reported
04/18/2019 11:27 AM 61.88 52.34 44.24 69.98 37.76 49.0 Not Reported 2.68 S 4.25 SE 4.47 SE No 0.000 No Precipitation 04/15/2019 09:01 PM 04/15/2019 09:06 PM 0.000 0.000 0.000 0.000 0.000 Not Reported Not Reported
04/18/2019 11:41 AM 61.88 52.16 43.52 69.98 37.76 51.0 Not Reported 4.70 S 7.16 S 6.04 S No 0.000 No Precipitation 04/15/2019 09:01 PM 04/15/2019 09:06 PM 0.000 0.000 0.000 0.000 0.000 Not Reported Not Reported
04/18/2019 11:59 AM 62.96 52.52 43.34 69.98 37.76 48.0 Not Reported 4.92 SW 3.36 W 7.61 S No 0.000 No Precipitation 04/15/2019 09:01 PM 04/15/2019 09:06 PM 0.000 0.000 0.000 0.000 0.000 Not Reported Not Reported
04/18/2019 12:11 PM 62.60 52.70 44.24 69.98 37.76 49.0 Not Reported 7.38 S 6.93 S 8.05 S No 0.000 No Precipitation 04/15/2019 09:01 PM 04/15/2019 09:06 PM 0.000 0.000 0.000 0.000 0.000 Not Reported Not Reported
04/18/2019 12:27 PM 63.68 53.60 45.14 69.98 37.76 50.0 Not Reported 7.38 S 7.83 S 8.95 S No 0.000 No Precipitation 04/15/2019 09:01 PM 04/15/2019 09:06 PM 0.000 0.000 0.000 0.000 0.000 Not Reported Not Reported
04/18/2019 12:41 PM 64.58 54.32 46.04 69.98 37.76 50.0 Not Reported 8.50 S 8.05 S 10.07 S No 0.000 No Precipitation 04/15/2019 09:01 PM 04/15/2019 09:06 PM 0.000 0.000 0.000 0.000 0.000 Not Reported Not Reported
04/18/2019 12:56 PM 65.66 55.40 47.30 69.98 37.76 51.0 Not Reported 7.61 S 9.17 S 9.84 S No 0.000 No Precipitation 04/15/2019 09:01 PM 04/15/2019 09:06 PM 0.000 0.000 0.000 0.000 0.000 Not Reported Not Reported
04/18/2019 01:11 PM 66.38 56.12 48.38 69.98 37.76 52.0 Not Reported 9.17 S 5.82 S 11.18 S No 0.000 No Precipitation 04/15/2019 09:01 PM 04/15/2019 09:06 PM 0.000 0.000 0.000 0.000 0.000 Not Reported Not Reported
04/18/2019 01:28 PM 67.10 55.58 46.58 69.98 37.76 47.0 Not Reported 8.28 S 8.05 S 9.84 S No 0.000 No Precipitation 04/15/2019 09:01 PM 04/15/2019 09:06 PM 0.000 0.000 0.000 0.000 0.000 Not Reported Not Reported
04/18/2019 01:41 PM 68.18 56.84 48.56 69.98 37.76 49.0 Not Reported 6.93 S 5.82 S 9.17 S No 0.000 No Precipitation 04/15/2019 09:01 PM 04/15/2019 09:06 PM 0.000 0.000 0.000 0.000 0.000 Not Reported Not Reported
04/18/2019 01:57 PM 70.52 57.02 46.94 69.98 37.76 41.0 Not Reported 7.61 S 6.04 S 9.40 S No 0.000 No Precipitation 04/15/2019 09:01 PM 04/15/2019 09:06 PM 0.000 0.000 0.000 0.000 0.000 Not Reported Not Reported
04/18/2019 02:11 PM 70.88 56.30 44.60 69.98 37.76 38.0 Not Reported 4.47 S 6.71 S 8.05 S No 0.000 No Precipitation 04/15/2019 09:01 PM 04/15/2019 09:06 PM 0.000 0.000 0.000 0.000 0.000 Not Reported Not Reported
04/18/2019 02:26 PM 71.96 56.30 43.34 69.98 37.76 35.0 Not Reported 7.16 S 6.71 S 8.95 S No 0.000 No Precipitation 04/15/2019 09:01 PM 04/15/2019 09:06 PM 0.000 0.000 0.000 0.000 0.000 Not Reported Not Reported
04/18/2019 02:41 PM 72.86 56.48 42.98 69.98 37.76 34.0 Not Reported 5.59 S 8.28 S 8.72 S No 0.000 No Precipitation 04/15/2019 09:01 PM 04/15/2019 09:06 PM 0.000 0.000 0.000 0.000 0.000 Not Reported Not Reported
04/18/2019 02:57 PM 73.94 56.48 42.08 69.98 37.76 31.0 Not Reported 4.47 S 7.38 S 6.26 S No 0.000 No Precipitation 04/15/2019 09:01 PM 04/15/2019 09:06 PM 0.000 0.000 0.000 0.000 0.000 Not Reported Not Reported
04/18/2019 03:12 PM 74.12 57.02 41.90 69.98 37.76 32.0 Not Reported 6.71 S 5.14 S 8.28 S No 0.000 No Precipitation 04/15/2019 09:01 PM 04/15/2019 09:06 PM 0.000 0.000 0.000 0.000 0.000 Not Reported Not Reported
04/18/2019 03:26 PM 74.48 56.66 41.72 69.98 37.76 30.0 Not Reported 3.80 S 7.16 S 9.17 S No 0.000 No Precipitation 04/15/2019 09:01 PM 04/15/2019 09:06 PM 0.000 0.000 0.000 0.000 0.000 Not Reported Not Reported
04/18/2019 03:42 PM 75.92 56.84 40.82 69.98 37.76 27.0 Not Reported 7.61 S 7.61 S 9.62 S No 0.000 No Precipitation 04/15/2019 09:01 PM 04/15/2019 09:06 PM 0.000 0.000 0.000 0.000 0.000 Not Reported Not Reported
04/18/2019 03:57 PM 75.56 57.02 41.00 69.98 37.76 29.0 Not Reported 4.25 S 7.16 S 8.28 S No 0.000 No Precipitation 04/15/2019 09:01 PM 04/15/2019 09:06 PM 0.000 0.000 0.000 0.000 0.000 Not Reported Not Reported
04/18/2019 04:12 PM 75.56 56.66 40.46 69.98 37.76 28.0 Not Reported 3.80 S 3.58 SE 8.95 S No 0.000 No Precipitation 04/15/2019 09:01 PM 04/15/2019 09:06 PM 0.000 0.000 0.000 0.000 0.000 Not Reported Not Reported
04/18/2019 04:26 PM 76.10 57.02 40.82 69.98 37.76 28.0 Not Reported 4.92 S 4.92 S 10.96 S No 0.000 No Precipitation 04/15/2019 09:01 PM 04/15/2019 09:06 PM 0.000 0.000 0.000 0.000 0.000 Not Reported Not Reported
04/18/2019 04:42 PM 77.90 57.20 39.38 69.98 37.76 25.0 Not Reported 6.04 SW 5.14 SW 10.96 S No 0.000 No Precipitation 04/15/2019 09:01 PM 04/15/2019 09:06 PM 0.000 0.000 0.000 0.000 0.000 Not Reported Not Reported
04/18/2019 04:58 PM 77.36 57.38 40.82 69.98 37.76 26.0 Not Reported 7.16 S 4.25 S 8.72 S No 0.000 No Precipitation 04/15/2019 09:01 PM 04/15/2019 09:06 PM 0.000 0.000 0.000 0.000 0.000 Not Reported Not Reported
04/18/2019 05:11 PM 78.08 57.74 40.82 69.98 37.76 29.0 Not Reported 1.57 E 4.25 S 7.61 S No 0.000 No Precipitation 04/15/2019 09:01 PM 04/15/2019 09:06 PM 0.000 0.000 0.000 0.000 0.000 Not Reported Not Reported
04/18/2019 05:27 PM 77.54 57.02 39.92 69.98 37.76 25.0 Not Reported 6.26 S 5.82 S 7.83 S No 0.000 No Precipitation 04/15/2019 09:01 PM 04/15/2019 09:06 PM 0.000 0.000 0.000 0.000 0.000 Not Reported Not Reported
04/18/2019 05:42 PM 78.44 57.56 39.92 69.98 37.76 25.0 Not Reported 4.25 S 3.13 S 8.05 S No 0.000 No Precipitation 04/15/2019 09:01 PM 04/15/2019 09:06 PM 0.000 0.000 0.000 0.000 0.000 Not Reported Not Reported
04/18/2019 05:57 PM 78.80 58.10 41.00 79.70 40.28 25.0 Not Reported 5.37 S 5.82 S 6.26 S No 0.000 No Precipitation 04/15/2019 09:01 PM 04/15/2019 09:06 PM 0.000 0.000 0.000 0.000 0.000 Not Reported Not Reported
04/18/2019 06:11 PM 78.98 57.56 39.20 79.70 40.28 23.0 Not Reported 6.04 S 6.93 S 6.93 S No 0.000 No Precipitation 04/15/2019 09:01 PM 04/15/2019 09:06 PM 0.000 0.000 0.000 0.000 0.000 Not Reported Not Reported
04/18/2019 06:26 PM 78.26 57.02 38.48 79.70 40.28 23.0 Not Reported 5.59 S 5.82 S 7.38 SW No 0.000 No Precipitation 04/15/2019 09:01 PM 04/15/2019 09:06 PM 0.000 0.000 0.000 0.000 0.000 Not Reported Not Reported
04/18/2019 06:43 PM 78.62 57.74 41.00 79.70 40.28 24.0 Not Reported 4.47 SE 2.68 S 6.49 SW No 0.000 No Precipitation 04/15/2019 09:01 PM 04/15/2019 09:06 PM 0.000 0.000 0.000 0.000 0.000 Not Reported Not Reported
04/18/2019 06:57 PM 78.26 57.02 39.20 79.70 40.28 23.0 Not Reported 7.61 S 6.93 S 8.28 S No 0.000 No Precipitation 04/15/2019 09:01 PM 04/15/2019 09:06 PM 0.000 0.000 0.000 0.000 0.000 Not Reported Not Reported
04/18/2019 07:11 PM 78.08 57.02 38.30 79.70 40.28 23.0 Not Reported 3.13 S 5.82 S 7.38 SE No 0.000 No Precipitation 04/15/2019 09:01 PM 04/15/2019 09:06 PM 0.000 0.000 0.000 0.000 0.000 Not Reported Not Reported
04/18/2019 07:26 PM 78.08 56.84 38.12 79.70 40.28 23.0 Not Reported 4.70 S 6.04 S 6.26 S No 0.000 No Precipitation 04/15/2019 09:01 PM 04/15/2019 09:06 PM 0.000 0.000 0.000 0.000 0.000 Not Reported Not Reported
04/18/2019 07:41 PM 77.72 56.84 38.30 79.70 40.28 24.0 Not Reported 3.80 S 2.68 S 6.49 S No 0.000 No Precipitation 04/15/2019 09:01 PM 04/15/2019 09:06 PM 0.000 0.000 0.000 0.000 0.000 Not Reported Not Reported
04/18/2019 07:56 PM 77.36 57.38 40.64 79.70 40.28 26.0 Not Reported 3.80 S 4.47 S 5.14 S No 0.000 No Precipitation 04/15/2019 09:01 PM 04/15/2019 09:06 PM 0.000 0.000 0.000 0.000 0.000 Not Reported Not Reported
04/18/2019 08:12 PM 76.46 57.92 42.80 79.70 40.28 30.0 Not Reported 3.58 S 4.25 W 4.92 S No 0.000 No Precipitation 04/15/2019 09:01 PM 04/15/2019 09:06 PM 0.000 0.000 0.000 0.000 0.000 Not Reported Not Reported
04/18/2019 08:26 PM 74.84 58.28 45.68 79.70 40.28 35.0 Not Reported 2.46 S 2.24 W 2.68 SW No 0.000 No Precipitation 04/15/2019 09:01 PM 04/15/2019 09:06 PM 0.000 0.000 0.000 0.000 0.000 Not Reported Not Reported
04/18/2019 08:41 PM 70.70 57.56 47.66 79.70 40.28 43.0 Not Reported 2.46 S 1.57 SW 2.91 SW No 0.000 No Precipitation 04/15/2019 09:01 PM 04/15/2019 09:06 PM 0.000 0.000 0.000 0.000 0.000 Not Reported Not Reported
04/18/2019 08:57 PM 65.12 55.94 48.74 79.70 40.28 55.0 Not Reported 1.12 E 0.00 SE 1.57 E No 0.000 No Precipitation 04/15/2019 09:01 PM 04/15/2019 09:06 PM 0.000 0.000 0.000 0.000 0.000 Not Reported Not Reported
04/18/2019 09:12 PM 63.68 53.96 46.04 79.70 40.28 52.0 Not Reported 1.34 S 1.79 SE 3.13 S No 0.000 No Precipitation 04/15/2019 09:01 PM 04/15/2019 09:06 PM 0.000 0.000 0.000 0.000 0.000 Not Reported Not Reported
04/18/2019 09:26 PM 64.22 54.14 45.68 79.70 40.28 50.0 Not Reported 1.34 NW 0.89 SW 3.36 W No 0.000 No Precipitation 04/15/2019 09:01 PM 04/15/2019 09:06 PM 0.000 0.000 0.000 0.000 0.000 Not Reported Not Reported
04/18/2019 09:44 PM 61.88 53.24 46.04 79.70 40.28 55.0 Not Reported 1.12 N 3.13 N 3.36 NE No 0.000 No Precipitation 04/15/2019 09:01 PM 04/15/2019 09:06 PM 0.000 0.000 0.000 0.000 0.000 Not Reported Not Reported
04/18/2019 09:56 PM 60.98 52.88 46.04 79.70 40.28 57.0 Not Reported 0.67 W 1.57 W 3.13 NE No 0.000 No Precipitation 04/15/2019 09:01 PM 04/15/2019 09:06 PM 0.000 0.000 0.000 0.000 0.000 Not Reported Not Reported
04/18/2019 10:11 PM 59.72 52.52 46.58 79.70 40.28 61.0 Not Reported 0.22 SE 1.34 SE 2.01 W No 0.000 No Precipitation 04/15/2019 09:01 PM 04/15/2019 09:06 PM 0.000 0.000 0.000 0.000 0.000 Not Reported Not Reported
04/18/2019 10:26 PM 59.18 52.16 46.04 79.70 40.28 61.0 Not Reported 2.46 NE 1.34 N 3.13 NE No 0.000 No Precipitation 04/15/2019 09:01 PM 04/15/2019 09:06 PM 0.000 0.000 0.000 0.000 0.000 Not Reported Not Reported
04/18/2019 10:43 PM 59.36 51.80 45.32 79.70 40.28 59.0 Not Reported 2.01 NE 1.57 NE 3.58 NE No 0.000 No Precipitation 04/15/2019 09:01 PM 04/15/2019 09:06 PM 0.000 0.000 0.000 0.000 0.000 Not Reported Not Reported
04/18/2019 10:57 PM 59.54 51.80 45.32 79.70 40.28 59.0 Not Reported 2.46 N 1.57 NW 3.36 NW No 0.000 No Precipitation 04/15/2019 09:01 PM 04/15/2019 09:06 PM 0.000 0.000 0.000 0.000 0.000 Not Reported Not Reported
04/18/2019 11:11 PM 57.20 50.72 45.14 79.70 40.28 63.0 Not Reported 1.34 N 1.12 NE 2.91 N No 0.000 No Precipitation 04/15/2019 09:01 PM 04/15/2019 09:06 PM 0.000 0.000 0.000 0.000 0.000 Not Reported Not Reported
04/18/2019 11:27 PM 56.84 50.72 45.32 79.70 40.28 64.0 Not Reported 0.22 SE 0.00 SE 1.12 SE No 0.000 No Precipitation 04/15/2019 09:01 PM 04/15/2019 09:06 PM 0.000 0.000 0.000 0.000 0.000 Not Reported Not Reported
04/18/2019 11:45 PM 58.46 51.08 44.78 79.70 40.28 60.0 Not Reported 1.34 S 0.89 S 2.01 E No 0.000 No Precipitation 04/15/2019 09:01 PM 04/15/2019 09:06 PM 0.000 0.000 0.000 0.000 0.000 Not Reported Not Reported
04/18/2019 11:57 PM 56.66 50.18 44.42 79.70 40.28 63.0 Not Reported 1.12 SW 0.89 S 1.34 S No 0.000 No Precipitation 04/15/2019 09:01 PM 04/15/2019 09:06 PM 0.000 0.000 0.000 0.000 0.000 Not Reported Not Reported